sensor_id;sensor_type;location;lat;lon;timestamp;temperature;humidity
3262;DHT22;1643;47.746;9.000;2024-01-27T00:00:05;8.20;99.90
3262;DHT22;1643;47.746;9.000;2024-01-27T00:02:31;8.20;99.90
3262;DHT22;1643;47.746;9.000;2024-01-27T00:04:56;8.10;99.90
3262;DHT22;1643;47.746;9.000;2024-01-27T00:07:22;8.10;99.90
3262;DHT22;1643;47.746;9.000;2024-01-27T00:09:48;8.20;99.90
3262;DHT22;1643;47.746;9.000;2024-01-27T00:12:14;8.20;99.90
3262;DHT22;1643;47.746;9.000;2024-01-27T00:14:40;8.20;99.90
3262;DHT22;1643;47.746;9.000;2024-01-27T00:17:06;8.20;99.90
3262;DHT22;1643;47.746;9.000;2024-01-27T00:19:31;8.10;99.90
3262;DHT22;1643;47.746;9.000;2024-01-27T00:21:57;8.10;99.90
3262;DHT22;1643;47.746;9.000;2024-01-27T00:24:24;8.10;99.90
3262;DHT22;1643;47.746;9.000;2024-01-27T00:26:49;8.10;99.90
3262;DHT22;1643;47.746;9.000;2024-01-27T00:29:15;8.10;99.90
3262;DHT22;1643;47.746;9.000;2024-01-27T00:31:41;8.00;99.90
3262;DHT22;1643;47.746;9.000;2024-01-27T00:34:06;8.00;99.90
3262;DHT22;1643;47.746;9.000;2024-01-27T00:36:32;8.00;99.90
3262;DHT22;1643;47.746;9.000;2024-01-27T00:38:57;8.00;99.90
3262;DHT22;1643;47.746;9.000;2024-01-27T00:41:26;8.00;99.90
3262;DHT22;1643;47.746;9.000;2024-01-27T00:43:51;8.00;99.90
3262;DHT22;1643;47.746;9.000;2024-01-27T00:46:17;8.00;99.90
3262;DHT22;1643;47.746;9.000;2024-01-27T00:48:43;8.00;99.90
3262;DHT22;1643;47.746;9.000;2024-01-27T00:51:08;8.00;99.90
3262;DHT22;1643;47.746;9.000;2024-01-27T00:53:34;8.00;99.90
3262;DHT22;1643;47.746;9.000;2024-01-27T00:55:59;7.90;99.90
3262;DHT22;1643;47.746;9.000;2024-01-27T00:58:25;7.90;99.90
3262;DHT22;1643;47.746;9.000;2024-01-27T01:00:51;7.90;99.90
3262;DHT22;1643;47.746;9.000;2024-01-27T01:03:17;7.90;99.90
3262;DHT22;1643;47.746;9.000;2024-01-27T01:05:43;7.90;99.90
3262;DHT22;1643;47.746;9.000;2024-01-27T01:08:09;7.90;99.90
3262;DHT22;1643;47.746;9.000;2024-01-27T01:10:34;7.90;99.90
3262;DHT22;1643;47.746;9.000;2024-01-27T01:13:00;7.90;99.90
3262;DHT22;1643;47.746;9.000;2024-01-27T01:15:26;7.80;99.90
3262;DHT22;1643;47.746;9.000;2024-01-27T01:17:52;7.80;99.90
3262;DHT22;1643;47.746;9.000;2024-01-27T01:20:17;7.80;99.90
3262;DHT22;1643;47.746;9.000;2024-01-27T01:22:43;7.70;99.90
3262;DHT22;1643;47.746;9.000;2024-01-27T01:25:08;7.70;99.90
3262;DHT22;1643;47.746;9.000;2024-01-27T01:27:34;7.70;99.90
3262;DHT22;1643;47.746;9.000;2024-01-27T01:30:00;7.70;99.90
3262;DHT22;1643;47.746;9.000;2024-01-27T01:32:25;7.70;99.90
3262;DHT22;1643;47.746;9.000;2024-01-27T01:34:51;7.70;99.90
3262;DHT22;1643;47.746;9.000;2024-01-27T01:37:16;7.70;99.90
3262;DHT22;1643;47.746;9.000;2024-01-27T01:39:42;7.70;99.90
3262;DHT22;1643;47.746;9.000;2024-01-27T01:42:08;7.70;99.90
3262;DHT22;1643;47.746;9.000;2024-01-27T01:44:33;7.60;99.90
3262;DHT22;1643;47.746;9.000;2024-01-27T01:46:59;7.60;99.90
3262;DHT22;1643;47.746;9.000;2024-01-27T01:49:25;7.70;99.90
3262;DHT22;1643;47.746;9.000;2024-01-27T01:51:51;7.70;99.90
3262;DHT22;1643;47.746;9.000;2024-01-27T01:54:17;7.70;99.90
3262;DHT22;1643;47.746;9.000;2024-01-27T01:56:42;7.70;99.90
3262;DHT22;1643;47.746;9.000;2024-01-27T01:59:08;7.70;99.90
3262;DHT22;1643;47.746;9.000;2024-01-27T02:01:34;7.60;99.90
3262;DHT22;1643;47.746;9.000;2024-01-27T02:03:59;7.50;99.90
3262;DHT22;1643;47.746;9.000;2024-01-27T02:06:25;7.40;99.90
3262;DHT22;1643;47.746;9.000;2024-01-27T02:08:51;7.30;99.90
3262;DHT22;1643;47.746;9.000;2024-01-27T02:11:17;7.30;99.90
3262;DHT22;1643;47.746;9.000;2024-01-27T02:13:43;7.20;99.90
3262;DHT22;1643;47.746;9.000;2024-01-27T02:16:09;7.20;99.90
3262;DHT22;1643;47.746;9.000;2024-01-27T02:18:34;7.20;99.90
3262;DHT22;1643;47.746;9.000;2024-01-27T02:21:00;7.10;99.90
3262;DHT22;1643;47.746;9.000;2024-01-27T02:23:26;7.10;99.90
3262;DHT22;1643;47.746;9.000;2024-01-27T02:25:51;7.00;99.90
3262;DHT22;1643;47.746;9.000;2024-01-27T02:28:17;7.00;99.90
3262;DHT22;1643;47.746;9.000;2024-01-27T02:30:43;6.90;99.90
3262;DHT22;1643;47.746;9.000;2024-01-27T02:33:09;6.90;99.90
3262;DHT22;1643;47.746;9.000;2024-01-27T02:35:34;6.80;99.90
3262;DHT22;1643;47.746;9.000;2024-01-27T02:38:00;6.80;99.90
3262;DHT22;1643;47.746;9.000;2024-01-27T02:40:26;6.80;99.90
3262;DHT22;1643;47.746;9.000;2024-01-27T02:42:52;6.80;99.90
3262;DHT22;1643;47.746;9.000;2024-01-27T02:45:18;6.80;99.90
3262;DHT22;1643;47.746;9.000;2024-01-27T02:47:43;6.70;99.90
3262;DHT22;1643;47.746;9.000;2024-01-27T02:50:09;6.60;99.90
3262;DHT22;1643;47.746;9.000;2024-01-27T02:52:35;6.50;99.90
3262;DHT22;1643;47.746;9.000;2024-01-27T02:55:01;6.40;99.90
3262;DHT22;1643;47.746;9.000;2024-01-27T02:57:27;6.40;99.90
3262;DHT22;1643;47.746;9.000;2024-01-27T02:59:52;6.40;99.90
3262;DHT22;1643;47.746;9.000;2024-01-27T03:02:18;6.20;99.90
3262;DHT22;1643;47.746;9.000;2024-01-27T03:04:44;6.30;99.90
3262;DHT22;1643;47.746;9.000;2024-01-27T03:07:09;6.30;99.90
3262;DHT22;1643;47.746;9.000;2024-01-27T03:09:35;6.30;99.90
3262;DHT22;1643;47.746;9.000;2024-01-27T03:12:02;6.30;99.90
3262;DHT22;1643;47.746;9.000;2024-01-27T03:14:27;6.20;99.90
3262;DHT22;1643;47.746;9.000;2024-01-27T03:16:53;6.20;99.90
3262;DHT22;1643;47.746;9.000;2024-01-27T03:19:19;6.20;99.90
3262;DHT22;1643;47.746;9.000;2024-01-27T03:21:45;6.10;99.90
3262;DHT22;1643;47.746;9.000;2024-01-27T03:24:11;6.00;99.90
3262;DHT22;1643;47.746;9.000;2024-01-27T03:26:36;6.00;99.90
3262;DHT22;1643;47.746;9.000;2024-01-27T03:29:02;5.90;99.90
3262;DHT22;1643;47.746;9.000;2024-01-27T03:31:31;5.90;99.90
3262;DHT22;1643;47.746;9.000;2024-01-27T03:33:58;5.90;99.90
3262;DHT22;1643;47.746;9.000;2024-01-27T03:36:24;6.00;99.90
3262;DHT22;1643;47.746;9.000;2024-01-27T03:38:50;5.90;99.90
3262;DHT22;1643;47.746;9.000;2024-01-27T03:41:15;5.90;99.90
3262;DHT22;1643;47.746;9.000;2024-01-27T03:43:41;5.90;99.90
3262;DHT22;1643;47.746;9.000;2024-01-27T03:46:06;5.90;99.90
3262;DHT22;1643;47.746;9.000;2024-01-27T03:48:32;5.90;99.90
3262;DHT22;1643;47.746;9.000;2024-01-27T03:50:58;5.80;99.90
3262;DHT22;1643;47.746;9.000;2024-01-27T03:53:23;5.90;99.90
3262;DHT22;1643;47.746;9.000;2024-01-27T03:55:49;5.80;99.90
3262;DHT22;1643;47.746;9.000;2024-01-27T03:58:15;5.80;99.90
3262;DHT22;1643;47.746;9.000;2024-01-27T04:00:40;5.70;99.90
3262;DHT22;1643;47.746;9.000;2024-01-27T04:03:06;5.60;99.90
3262;DHT22;1643;47.746;9.000;2024-01-27T04:05:31;5.60;99.90
3262;DHT22;1643;47.746;9.000;2024-01-27T04:07:57;5.60;99.90
3262;DHT22;1643;47.746;9.000;2024-01-27T04:10:23;5.50;99.90
3262;DHT22;1643;47.746;9.000;2024-01-27T04:12:49;5.50;99.90
3262;DHT22;1643;47.746;9.000;2024-01-27T04:15:15;5.30;99.90
3262;DHT22;1643;47.746;9.000;2024-01-27T04:17:41;5.30;99.90
3262;DHT22;1643;47.746;9.000;2024-01-27T04:20:08;5.30;99.90
3262;DHT22;1643;47.746;9.000;2024-01-27T04:22:34;5.30;99.90
3262;DHT22;1643;47.746;9.000;2024-01-27T04:25:00;5.30;99.90
3262;DHT22;1643;47.746;9.000;2024-01-27T04:27:29;5.30;99.90
3262;DHT22;1643;47.746;9.000;2024-01-27T04:29:55;5.30;99.90
3262;DHT22;1643;47.746;9.000;2024-01-27T04:32:22;5.30;99.90
3262;DHT22;1643;47.746;9.000;2024-01-27T04:34:48;5.20;99.90
3262;DHT22;1643;47.746;9.000;2024-01-27T04:37:13;5.20;99.90
3262;DHT22;1643;47.746;9.000;2024-01-27T04:39:39;5.10;99.90
3262;DHT22;1643;47.746;9.000;2024-01-27T04:42:05;5.20;99.90
3262;DHT22;1643;47.746;9.000;2024-01-27T04:44:34;5.20;99.90
3262;DHT22;1643;47.746;9.000;2024-01-27T04:47:00;5.20;99.90
3262;DHT22;1643;47.746;9.000;2024-01-27T04:49:25;5.20;99.90
3262;DHT22;1643;47.746;9.000;2024-01-27T04:51:51;5.20;99.90
3262;DHT22;1643;47.746;9.000;2024-01-27T04:54:20;5.20;99.90
3262;DHT22;1643;47.746;9.000;2024-01-27T04:56:45;5.20;99.90
3262;DHT22;1643;47.746;9.000;2024-01-27T04:59:11;5.10;99.90
3262;DHT22;1643;47.746;9.000;2024-01-27T05:01:37;5.20;99.90
3262;DHT22;1643;47.746;9.000;2024-01-27T05:04:05;5.20;99.90
3262;DHT22;1643;47.746;9.000;2024-01-27T05:06:30;5.10;99.90
3262;DHT22;1643;47.746;9.000;2024-01-27T05:08:56;5.10;99.90
3262;DHT22;1643;47.746;9.000;2024-01-27T05:11:29;5.10;99.90
3262;DHT22;1643;47.746;9.000;2024-01-27T05:13:54;5.10;99.90
3262;DHT22;1643;47.746;9.000;2024-01-27T05:16:20;5.10;99.90
3262;DHT22;1643;47.746;9.000;2024-01-27T05:18:45;5.10;99.90
3262;DHT22;1643;47.746;9.000;2024-01-27T05:21:11;5.00;99.90
3262;DHT22;1643;47.746;9.000;2024-01-27T05:23:37;5.00;99.90
3262;DHT22;1643;47.746;9.000;2024-01-27T05:26:05;5.00;99.90
3262;DHT22;1643;47.746;9.000;2024-01-27T05:28:31;5.00;99.90
3262;DHT22;1643;47.746;9.000;2024-01-27T05:30:57;4.90;99.90
3262;DHT22;1643;47.746;9.000;2024-01-27T05:33:23;4.90;99.90
3262;DHT22;1643;47.746;9.000;2024-01-27T05:35:49;4.90;99.90
3262;DHT22;1643;47.746;9.000;2024-01-27T05:38:15;4.80;99.90
3262;DHT22;1643;47.746;9.000;2024-01-27T05:40:41;4.80;99.90
3262;DHT22;1643;47.746;9.000;2024-01-27T05:43:07;4.70;99.90
3262;DHT22;1643;47.746;9.000;2024-01-27T05:45:33;4.70;99.90
3262;DHT22;1643;47.746;9.000;2024-01-27T05:47:58;4.70;99.90
3262;DHT22;1643;47.746;9.000;2024-01-27T05:50:24;4.60;99.90
3262;DHT22;1643;47.746;9.000;2024-01-27T05:52:50;4.60;99.90
3262;DHT22;1643;47.746;9.000;2024-01-27T05:55:16;4.60;99.90
3262;DHT22;1643;47.746;9.000;2024-01-27T05:57:42;4.60;99.90
3262;DHT22;1643;47.746;9.000;2024-01-27T06:00:08;4.50;99.90
3262;DHT22;1643;47.746;9.000;2024-01-27T06:02:35;4.50;99.90
3262;DHT22;1643;47.746;9.000;2024-01-27T06:05:01;4.60;99.90
3262;DHT22;1643;47.746;9.000;2024-01-27T06:07:27;4.50;99.90
3262;DHT22;1643;47.746;9.000;2024-01-27T06:09:53;4.50;99.90
3262;DHT22;1643;47.746;9.000;2024-01-27T06:12:20;4.60;99.90
3262;DHT22;1643;47.746;9.000;2024-01-27T06:14:45;4.50;99.90
3262;DHT22;1643;47.746;9.000;2024-01-27T06:17:11;4.40;99.90
3262;DHT22;1643;47.746;9.000;2024-01-27T06:19:37;4.40;99.90
3262;DHT22;1643;47.746;9.000;2024-01-27T06:22:03;4.40;99.90
3262;DHT22;1643;47.746;9.000;2024-01-27T06:24:29;4.40;99.90
3262;DHT22;1643;47.746;9.000;2024-01-27T06:26:54;4.40;99.90
3262;DHT22;1643;47.746;9.000;2024-01-27T06:29:20;4.40;99.90
3262;DHT22;1643;47.746;9.000;2024-01-27T06:31:45;4.40;99.90
3262;DHT22;1643;47.746;9.000;2024-01-27T06:34:11;4.40;99.90
3262;DHT22;1643;47.746;9.000;2024-01-27T06:36:36;4.30;99.90
3262;DHT22;1643;47.746;9.000;2024-01-27T06:39:02;4.30;99.90
3262;DHT22;1643;47.746;9.000;2024-01-27T06:41:28;4.30;99.90
3262;DHT22;1643;47.746;9.000;2024-01-27T06:43:53;4.20;99.90
3262;DHT22;1643;47.746;9.000;2024-01-27T06:46:19;4.30;99.90
3262;DHT22;1643;47.746;9.000;2024-01-27T06:48:45;4.20;99.90
3262;DHT22;1643;47.746;9.000;2024-01-27T06:51:10;4.20;99.90
3262;DHT22;1643;47.746;9.000;2024-01-27T06:53:36;4.20;99.90
3262;DHT22;1643;47.746;9.000;2024-01-27T06:56:02;4.10;99.90
3262;DHT22;1643;47.746;9.000;2024-01-27T06:58:27;4.10;99.90
3262;DHT22;1643;47.746;9.000;2024-01-27T07:00:53;4.10;99.90
3262;DHT22;1643;47.746;9.000;2024-01-27T07:03:19;4.10;99.90
3262;DHT22;1643;47.746;9.000;2024-01-27T07:05:45;4.10;99.90
3262;DHT22;1643;47.746;9.000;2024-01-27T07:08:11;4.10;99.90
3262;DHT22;1643;47.746;9.000;2024-01-27T07:10:36;4.10;99.90
3262;DHT22;1643;47.746;9.000;2024-01-27T07:13:02;4.10;99.90
3262;DHT22;1643;47.746;9.000;2024-01-27T07:15:28;4.10;99.90
3262;DHT22;1643;47.746;9.000;2024-01-27T07:17:54;4.00;99.90
3262;DHT22;1643;47.746;9.000;2024-01-27T07:20:20;4.00;99.90
3262;DHT22;1643;47.746;9.000;2024-01-27T07:22:47;4.00;99.90
3262;DHT22;1643;47.746;9.000;2024-01-27T07:25:13;4.00;99.90
3262;DHT22;1643;47.746;9.000;2024-01-27T07:27:39;4.00;99.90
3262;DHT22;1643;47.746;9.000;2024-01-27T07:30:05;4.00;99.90
3262;DHT22;1643;47.746;9.000;2024-01-27T07:32:32;4.00;99.90
3262;DHT22;1643;47.746;9.000;2024-01-27T07:34:57;4.00;99.90
3262;DHT22;1643;47.746;9.000;2024-01-27T07:37:23;4.10;99.90
3262;DHT22;1643;47.746;9.000;2024-01-27T07:39:49;4.10;99.90
3262;DHT22;1643;47.746;9.000;2024-01-27T07:42:14;4.20;99.90
3262;DHT22;1643;47.746;9.000;2024-01-27T07:44:41;4.20;99.90
3262;DHT22;1643;47.746;9.000;2024-01-27T07:47:07;4.20;99.90
3262;DHT22;1643;47.746;9.000;2024-01-27T07:49:34;4.30;99.90
3262;DHT22;1643;47.746;9.000;2024-01-27T07:52:00;4.30;99.90
3262;DHT22;1643;47.746;9.000;2024-01-27T07:54:26;4.30;99.90
3262;DHT22;1643;47.746;9.000;2024-01-27T07:56:51;4.50;99.90
3262;DHT22;1643;47.746;9.000;2024-01-27T07:59:17;4.40;99.90
3262;DHT22;1643;47.746;9.000;2024-01-27T08:01:44;4.50;99.90
3262;DHT22;1643;47.746;9.000;2024-01-27T08:04:09;4.50;99.90
3262;DHT22;1643;47.746;9.000;2024-01-27T08:06:49;4.60;99.90
3262;DHT22;1643;47.746;9.000;2024-01-27T08:09:15;4.70;99.90
3262;DHT22;1643;47.746;9.000;2024-01-27T08:11:40;4.70;99.90
3262;DHT22;1643;47.746;9.000;2024-01-27T08:14:06;4.80;99.90
3262;DHT22;1643;47.746;9.000;2024-01-27T08:16:31;5.00;99.90
3262;DHT22;1643;47.746;9.000;2024-01-27T08:18:57;5.10;99.90
3262;DHT22;1643;47.746;9.000;2024-01-27T08:21:23;5.20;99.90
3262;DHT22;1643;47.746;9.000;2024-01-27T08:23:49;5.20;99.90
3262;DHT22;1643;47.746;9.000;2024-01-27T08:26:14;5.40;99.90
3262;DHT22;1643;47.746;9.000;2024-01-27T08:28:40;5.40;99.90
3262;DHT22;1643;47.746;9.000;2024-01-27T08:31:06;5.50;99.90
3262;DHT22;1643;47.746;9.000;2024-01-27T08:33:31;5.80;99.90
3262;DHT22;1643;47.746;9.000;2024-01-27T08:35:57;6.10;99.90
3262;DHT22;1643;47.746;9.000;2024-01-27T08:38:23;6.10;99.90
3262;DHT22;1643;47.746;9.000;2024-01-27T08:40:48;6.10;99.90
3262;DHT22;1643;47.746;9.000;2024-01-27T08:43:14;6.10;99.90
3262;DHT22;1643;47.746;9.000;2024-01-27T08:45:40;5.90;99.90
3262;DHT22;1643;47.746;9.000;2024-01-27T08:48:06;5.80;99.90
3262;DHT22;1643;47.746;9.000;2024-01-27T08:50:32;5.80;99.90
3262;DHT22;1643;47.746;9.000;2024-01-27T08:52:58;5.80;99.90
3262;DHT22;1643;47.746;9.000;2024-01-27T08:55:23;5.90;99.90
3262;DHT22;1643;47.746;9.000;2024-01-27T08:57:52;6.10;99.90
3262;DHT22;1643;47.746;9.000;2024-01-27T09:00:18;6.30;99.90
3262;DHT22;1643;47.746;9.000;2024-01-27T09:02:44;6.60;99.90
3262;DHT22;1643;47.746;9.000;2024-01-27T09:05:10;6.90;99.90
3262;DHT22;1643;47.746;9.000;2024-01-27T09:07:35;7.20;99.90
3262;DHT22;1643;47.746;9.000;2024-01-27T09:10:02;7.40;99.90
3262;DHT22;1643;47.746;9.000;2024-01-27T09:12:28;7.60;99.90
3262;DHT22;1643;47.746;9.000;2024-01-27T09:14:53;7.80;99.90
3262;DHT22;1643;47.746;9.000;2024-01-27T09:17:20;8.00;99.90
3262;DHT22;1643;47.746;9.000;2024-01-27T09:19:46;8.10;99.90
3262;DHT22;1643;47.746;9.000;2024-01-27T09:22:14;8.20;99.90
3262;DHT22;1643;47.746;9.000;2024-01-27T09:24:40;8.30;99.90
3262;DHT22;1643;47.746;9.000;2024-01-27T09:27:06;8.50;99.90
3262;DHT22;1643;47.746;9.000;2024-01-27T09:29:32;8.60;99.90
3262;DHT22;1643;47.746;9.000;2024-01-27T09:31:57;8.90;99.90
3262;DHT22;1643;47.746;9.000;2024-01-27T09:34:23;9.00;99.90
3262;DHT22;1643;47.746;9.000;2024-01-27T09:36:49;9.10;99.90
3262;DHT22;1643;47.746;9.000;2024-01-27T09:39:15;9.30;99.90
3262;DHT22;1643;47.746;9.000;2024-01-27T09:41:41;9.40;99.90
3262;DHT22;1643;47.746;9.000;2024-01-27T09:44:07;9.40;99.90
3262;DHT22;1643;47.746;9.000;2024-01-27T09:46:33;9.20;99.90
3262;DHT22;1643;47.746;9.000;2024-01-27T09:48:59;9.20;99.90
3262;DHT22;1643;47.746;9.000;2024-01-27T09:51:25;9.30;99.90
3262;DHT22;1643;47.746;9.000;2024-01-27T09:53:51;8.90;99.90
3262;DHT22;1643;47.746;9.000;2024-01-27T09:56:17;8.60;99.90
3262;DHT22;1643;47.746;9.000;2024-01-27T09:58:45;8.50;99.90
3262;DHT22;1643;47.746;9.000;2024-01-27T10:01:11;8.40;99.90
3262;DHT22;1643;47.746;9.000;2024-01-27T10:03:40;8.50;99.90
3262;DHT22;1643;47.746;9.000;2024-01-27T10:06:09;8.70;99.90
3262;DHT22;1643;47.746;9.000;2024-01-27T10:08:35;8.80;99.90
3262;DHT22;1643;47.746;9.000;2024-01-27T10:11:07;9.00;99.90
3262;DHT22;1643;47.746;9.000;2024-01-27T10:13:33;9.10;99.90
3262;DHT22;1643;47.746;9.000;2024-01-27T10:16:08;9.10;99.90
3262;DHT22;1643;47.746;9.000;2024-01-27T10:18:35;9.10;99.90
3262;DHT22;1643;47.746;9.000;2024-01-27T10:21:15;9.40;99.90
3262;DHT22;1643;47.746;9.000;2024-01-27T10:23:41;9.80;99.90
3262;DHT22;1643;47.746;9.000;2024-01-27T10:26:10;10.10;99.90
3262;DHT22;1643;47.746;9.000;2024-01-27T10:28:36;10.20;99.90
3262;DHT22;1643;47.746;9.000;2024-01-27T10:31:12;10.40;99.90
3262;DHT22;1643;47.746;9.000;2024-01-27T10:33:38;10.70;99.90
3262;DHT22;1643;47.746;9.000;2024-01-27T10:36:04;10.60;99.90
3262;DHT22;1643;47.746;9.000;2024-01-27T10:38:39;10.70;99.90
3262;DHT22;1643;47.746;9.000;2024-01-27T10:41:08;10.80;99.90
3262;DHT22;1643;47.746;9.000;2024-01-27T10:43:36;10.60;99.90
3262;DHT22;1643;47.746;9.000;2024-01-27T10:46:06;10.40;99.90
3262;DHT22;1643;47.746;9.000;2024-01-27T10:48:35;10.60;99.90
3262;DHT22;1643;47.746;9.000;2024-01-27T10:51:07;10.60;99.90
3262;DHT22;1643;47.746;9.000;2024-01-27T10:53:35;10.50;99.90
3262;DHT22;1643;47.746;9.000;2024-01-27T10:56:01;10.30;99.90
3262;DHT22;1643;47.746;9.000;2024-01-27T10:58:30;10.50;99.90
3262;DHT22;1643;47.746;9.000;2024-01-27T11:00:58;10.50;99.90
3262;DHT22;1643;47.746;9.000;2024-01-27T11:03:25;10.50;99.90
3262;DHT22;1643;47.746;9.000;2024-01-27T11:05:53;10.50;99.90
3262;DHT22;1643;47.746;9.000;2024-01-27T11:08:20;10.60;99.90
3262;DHT22;1643;47.746;9.000;2024-01-27T11:10:49;10.70;99.90
3262;DHT22;1643;47.746;9.000;2024-01-27T11:13:15;10.80;99.90
3262;DHT22;1643;47.746;9.000;2024-01-27T11:15:51;10.80;99.90
3262;DHT22;1643;47.746;9.000;2024-01-27T11:18:17;11.10;99.90
3262;DHT22;1643;47.746;9.000;2024-01-27T11:20:44;11.00;99.90
3262;DHT22;1643;47.746;9.000;2024-01-27T11:23:11;11.10;99.90
3262;DHT22;1643;47.746;9.000;2024-01-27T11:25:39;11.00;99.90
3262;DHT22;1643;47.746;9.000;2024-01-27T11:30:39;10.70;99.90
3262;DHT22;1643;47.746;9.000;2024-01-27T11:33:05;10.70;99.90
3262;DHT22;1643;47.746;9.000;2024-01-27T11:35:31;10.80;99.90
3262;DHT22;1643;47.746;9.000;2024-01-27T11:37:57;10.80;99.90
3262;DHT22;1643;47.746;9.000;2024-01-27T11:40:23;10.80;99.90
3262;DHT22;1643;47.746;9.000;2024-01-27T11:42:59;10.70;99.90
3262;DHT22;1643;47.746;9.000;2024-01-27T11:45:26;10.70;99.90
3262;DHT22;1643;47.746;9.000;2024-01-27T11:47:55;10.90;99.90
3262;DHT22;1643;47.746;9.000;2024-01-27T11:50:21;11.10;99.90
3262;DHT22;1643;47.746;9.000;2024-01-27T11:52:47;11.40;99.90
3262;DHT22;1643;47.746;9.000;2024-01-27T11:55:13;11.70;99.90
3262;DHT22;1643;47.746;9.000;2024-01-27T11:57:41;11.90;99.90
3262;DHT22;1643;47.746;9.000;2024-01-27T12:00:08;12.10;99.90
3262;DHT22;1643;47.746;9.000;2024-01-27T12:02:35;12.40;99.90
3262;DHT22;1643;47.746;9.000;2024-01-27T12:05:05;12.70;99.90
3262;DHT22;1643;47.746;9.000;2024-01-27T12:07:31;12.80;99.90
3262;DHT22;1643;47.746;9.000;2024-01-27T12:09:57;12.90;99.90
3262;DHT22;1643;47.746;9.000;2024-01-27T12:12:22;13.00;99.90
3262;DHT22;1643;47.746;9.000;2024-01-27T12:14:50;12.40;99.90
3262;DHT22;1643;47.746;9.000;2024-01-27T12:17:16;12.30;99.90
3262;DHT22;1643;47.746;9.000;2024-01-27T12:19:50;12.30;99.90
3262;DHT22;1643;47.746;9.000;2024-01-27T12:24:52;12.50;99.90
3262;DHT22;1643;47.746;9.000;2024-01-27T12:27:18;12.50;99.90
3262;DHT22;1643;47.746;9.000;2024-01-27T12:29:43;12.70;99.90
3262;DHT22;1643;47.746;9.000;2024-01-27T12:32:09;12.60;99.90
3262;DHT22;1643;47.746;9.000;2024-01-27T12:34:42;12.60;99.90
3262;DHT22;1643;47.746;9.000;2024-01-27T12:37:10;12.80;99.90
3262;DHT22;1643;47.746;9.000;2024-01-27T12:39:36;12.80;99.90
3262;DHT22;1643;47.746;9.000;2024-01-27T12:42:02;12.90;99.90
3262;DHT22;1643;47.746;9.000;2024-01-27T12:44:27;12.80;99.90
3262;DHT22;1643;47.746;9.000;2024-01-27T12:46:53;12.70;99.90
3262;DHT22;1643;47.746;9.000;2024-01-27T12:49:19;12.80;99.90
3262;DHT22;1643;47.746;9.000;2024-01-27T12:51:45;12.70;99.90
3262;DHT22;1643;47.746;9.000;2024-01-27T12:54:12;12.60;99.90
3262;DHT22;1643;47.746;9.000;2024-01-27T12:56:38;12.40;99.90
3262;DHT22;1643;47.746;9.000;2024-01-27T12:59:04;12.40;99.90
3262;DHT22;1643;47.746;9.000;2024-01-27T13:01:33;12.60;99.90
3262;DHT22;1643;47.746;9.000;2024-01-27T13:03:58;13.00;99.90
3262;DHT22;1643;47.746;9.000;2024-01-27T13:06:24;13.40;99.90
3262;DHT22;1643;47.746;9.000;2024-01-27T13:08:50;13.60;99.90
3262;DHT22;1643;47.746;9.000;2024-01-27T13:11:16;13.40;99.90
3262;DHT22;1643;47.746;9.000;2024-01-27T13:13:42;13.30;99.90
3262;DHT22;1643;47.746;9.000;2024-01-27T13:16:08;13.10;99.90
3262;DHT22;1643;47.746;9.000;2024-01-27T13:18:35;13.00;99.90
3262;DHT22;1643;47.746;9.000;2024-01-27T13:21:01;12.90;99.90
3262;DHT22;1643;47.746;9.000;2024-01-27T13:23:26;13.20;99.90
3262;DHT22;1643;47.746;9.000;2024-01-27T13:25:52;13.10;99.90
3262;DHT22;1643;47.746;9.000;2024-01-27T13:28:18;13.10;99.90
3262;DHT22;1643;47.746;9.000;2024-01-27T13:30:43;13.20;99.90
3262;DHT22;1643;47.746;9.000;2024-01-27T13:33:09;13.40;99.90
3262;DHT22;1643;47.746;9.000;2024-01-27T13:35:37;13.50;99.90
3262;DHT22;1643;47.746;9.000;2024-01-27T13:38:05;13.40;99.90
3262;DHT22;1643;47.746;9.000;2024-01-27T13:40:31;13.50;99.90
3262;DHT22;1643;47.746;9.000;2024-01-27T13:42:57;13.60;99.90
3262;DHT22;1643;47.746;9.000;2024-01-27T13:45:23;13.70;99.90
3262;DHT22;1643;47.746;9.000;2024-01-27T13:47:49;13.90;99.90
3262;DHT22;1643;47.746;9.000;2024-01-27T13:50:14;14.30;99.90
3262;DHT22;1643;47.746;9.000;2024-01-27T13:52:40;14.50;99.90
3262;DHT22;1643;47.746;9.000;2024-01-27T13:55:09;14.40;99.90
3262;DHT22;1643;47.746;9.000;2024-01-27T13:57:35;14.30;99.90
3262;DHT22;1643;47.746;9.000;2024-01-27T14:00:01;14.40;99.90
3262;DHT22;1643;47.746;9.000;2024-01-27T14:02:27;14.40;99.90
3262;DHT22;1643;47.746;9.000;2024-01-27T14:04:52;14.70;99.90
3262;DHT22;1643;47.746;9.000;2024-01-27T14:07:18;14.70;99.90
3262;DHT22;1643;47.746;9.000;2024-01-27T14:09:44;14.70;99.90
3262;DHT22;1643;47.746;9.000;2024-01-27T14:12:10;14.70;99.90
3262;DHT22;1643;47.746;9.000;2024-01-27T14:14:35;14.90;99.90
3262;DHT22;1643;47.746;9.000;2024-01-27T14:17:04;15.10;99.90
3262;DHT22;1643;47.746;9.000;2024-01-27T14:19:30;15.40;99.50
3262;DHT22;1643;47.746;9.000;2024-01-27T14:21:55;15.40;99.70
3262;DHT22;1643;47.746;9.000;2024-01-27T14:24:21;15.00;99.80
3262;DHT22;1643;47.746;9.000;2024-01-27T14:26:47;15.10;99.90
3262;DHT22;1643;47.746;9.000;2024-01-27T14:29:12;15.10;99.70
3262;DHT22;1643;47.746;9.000;2024-01-27T14:31:38;15.00;99.70
3262;DHT22;1643;47.746;9.000;2024-01-27T14:34:04;15.00;99.70
3262;DHT22;1643;47.746;9.000;2024-01-27T14:36:29;14.90;99.70
3262;DHT22;1643;47.746;9.000;2024-01-27T14:38:56;14.70;99.60
3262;DHT22;1643;47.746;9.000;2024-01-27T14:41:21;14.40;99.60
3262;DHT22;1643;47.746;9.000;2024-01-27T14:43:49;14.60;99.60
3262;DHT22;1643;47.746;9.000;2024-01-27T14:46:16;14.60;99.70
3262;DHT22;1643;47.746;9.000;2024-01-27T14:48:42;14.70;99.60
3262;DHT22;1643;47.746;9.000;2024-01-27T14:51:08;14.80;99.40
3262;DHT22;1643;47.746;9.000;2024-01-27T14:53:34;14.90;99.40
3262;DHT22;1643;47.746;9.000;2024-01-27T14:56:00;15.00;99.30
3262;DHT22;1643;47.746;9.000;2024-01-27T14:58:26;15.00;99.20
3262;DHT22;1643;47.746;9.000;2024-01-27T15:00:52;14.90;99.20
3262;DHT22;1643;47.746;9.000;2024-01-27T15:03:22;15.00;99.20
3262;DHT22;1643;47.746;9.000;2024-01-27T15:05:49;15.10;99.20
3262;DHT22;1643;47.746;9.000;2024-01-27T15:08:16;15.30;99.10
3262;DHT22;1643;47.746;9.000;2024-01-27T15:10:42;15.30;99.10
3262;DHT22;1643;47.746;9.000;2024-01-27T15:13:11;15.40;98.90
3262;DHT22;1643;47.746;9.000;2024-01-27T15:15:40;15.20;98.90
3262;DHT22;1643;47.746;9.000;2024-01-27T15:18:07;15.30;98.80
3262;DHT22;1643;47.746;9.000;2024-01-27T15:20:34;15.30;98.80
3262;DHT22;1643;47.746;9.000;2024-01-27T15:23:00;15.30;98.60
3262;DHT22;1643;47.746;9.000;2024-01-27T15:25:26;15.40;98.70
3262;DHT22;1643;47.746;9.000;2024-01-27T15:27:51;15.20;98.50
3262;DHT22;1643;47.746;9.000;2024-01-27T15:30:17;14.90;98.70
3262;DHT22;1643;47.746;9.000;2024-01-27T15:32:47;15.00;99.00
3262;DHT22;1643;47.746;9.000;2024-01-27T15:35:12;15.10;99.00
3262;DHT22;1643;47.746;9.000;2024-01-27T15:37:38;15.20;98.80
3262;DHT22;1643;47.746;9.000;2024-01-27T15:40:05;14.80;99.00
3262;DHT22;1643;47.746;9.000;2024-01-27T15:42:31;14.40;99.20
3262;DHT22;1643;47.746;9.000;2024-01-27T15:44:57;14.00;99.20
3262;DHT22;1643;47.746;9.000;2024-01-27T15:47:23;13.70;99.40
3262;DHT22;1643;47.746;9.000;2024-01-27T15:49:48;13.50;99.70
3262;DHT22;1643;47.746;9.000;2024-01-27T15:52:18;13.30;99.90
3262;DHT22;1643;47.746;9.000;2024-01-27T15:54:44;13.10;99.90
3262;DHT22;1643;47.746;9.000;2024-01-27T15:57:13;13.00;99.90
3262;DHT22;1643;47.746;9.000;2024-01-27T15:59:39;12.80;99.90
3262;DHT22;1643;47.746;9.000;2024-01-27T16:02:05;12.70;99.90
3262;DHT22;1643;47.746;9.000;2024-01-27T16:04:30;12.70;99.90
3262;DHT22;1643;47.746;9.000;2024-01-27T16:06:56;12.50;99.90
3262;DHT22;1643;47.746;9.000;2024-01-27T16:09:22;12.40;99.90